createdAt,value
2019-03-03T00:00:18.443Z,1.45
2019-03-03T00:02:46.915Z,1.42
2019-03-03T00:05:15.352Z,1.45
2019-03-03T00:07:48.327Z,1.45
2019-03-03T00:10:16.737Z,1.20
2019-03-03T00:12:45.192Z,1.20
2019-03-03T00:15:33.188Z,1.55
2019-03-03T00:18:01.611Z,1.37
2019-03-03T00:20:30.117Z,1.67
2019-03-03T00:22:58.562Z,2.37
2019-03-03T00:25:26.982Z,2.10
2019-03-03T00:27:55.432Z,2.25
2019-03-03T00:30:23.850Z,1.55
2019-03-03T00:32:52.243Z,2.25
2019-03-03T00:35:20.765Z,1.85
2019-03-03T00:38:08.822Z,1.52
2019-03-03T00:40:41.321Z,1.62
2019-03-03T00:43:27.709Z,1.45
2019-03-03T00:48:41.696Z,1.67
2019-03-03T00:51:11.824Z,2.40
2019-03-03T00:53:44.809Z,1.32
2019-03-03T00:56:31.135Z,2.40
2019-03-03T00:59:06.700Z,1.42
2019-03-03T01:01:36.797Z,1.22
2019-03-03T01:04:23.544Z,1.27
2019-03-03T01:07:11.993Z,0.90
2019-03-03T01:09:58.257Z,1.00
2019-03-03T01:12:37.868Z,1.17
2019-03-03T01:15:09.879Z,1.35
2019-03-03T01:17:39.917Z,1.10
2019-03-03T01:20:11.583Z,1.20
2019-03-03T01:22:47.431Z,1.00
2019-03-03T01:25:15.800Z,0.80
2019-03-03T01:27:44.336Z,0.90
2019-03-03T01:30:13.238Z,1.07
2019-03-03T01:32:41.598Z,2.30
2019-03-03T01:35:10.895Z,1.95
2019-03-03T01:37:39.249Z,1.70
2019-03-03T01:40:09.809Z,2.42
2019-03-03T01:42:38.330Z,2.05
2019-03-03T01:45:10.234Z,2.00
2019-03-03T01:47:38.659Z,2.70
2019-03-03T01:50:09.955Z,2.35
2019-03-03T01:52:57.846Z,3.00
2019-03-03T01:55:26.381Z,2.00
2019-03-03T01:57:54.846Z,1.60
2019-03-03T02:00:26.532Z,2.10
2019-03-03T02:02:56.104Z,3.20
2019-03-03T02:05:24.456Z,2.27
2019-03-03T02:07:52.806Z,1.50
2019-03-03T02:10:24.720Z,1.90
2019-03-03T02:12:53.213Z,1.65
2019-03-03T02:15:22.057Z,1.42
2019-03-03T02:17:50.485Z,2.08
2019-03-03T02:20:18.910Z,1.15
2019-03-03T02:22:47.352Z,1.80
2019-03-03T02:25:15.729Z,1.45
2019-03-03T02:27:44.176Z,2.27
2019-03-03T02:30:19.020Z,3.17
2019-03-03T02:32:47.740Z,2.17
2019-03-03T02:35:16.129Z,2.40
2019-03-03T02:37:44.587Z,3.87
2019-03-03T02:40:18.044Z,3.80
2019-03-03T02:42:46.424Z,3.12
2019-03-03T02:45:15.823Z,2.20
2019-03-03T02:47:45.302Z,1.87
2019-03-03T02:50:15.620Z,1.98
2019-03-03T02:52:43.981Z,2.33
2019-03-03T02:55:14.127Z,1.50
2019-03-03T02:57:42.866Z,1.65
2019-03-03T03:00:19.703Z,1.50
2019-03-03T03:02:49.333Z,1.32
2019-03-03T03:05:20.775Z,1.62
2019-03-03T03:07:54.807Z,1.77
2019-03-03T03:10:41.257Z,2.70
2019-03-03T03:16:01.394Z,1.87
2019-03-03T03:18:34.281Z,1.90
2019-03-03T03:21:16.189Z,3.42
2019-03-03T03:23:55.304Z,2.67
2019-03-03T03:26:33.931Z,2.02
2019-03-03T03:29:04.105Z,2.47
2019-03-03T03:31:37.105Z,4.10
2019-03-03T03:34:19.148Z,2.05
2019-03-03T03:36:55.051Z,1.70
2019-03-03T03:39:25.167Z,2.15
2019-03-03T03:41:57.833Z,1.85
2019-03-03T03:44:27.912Z,1.37
2019-03-03T03:46:57.998Z,1.20
2019-03-03T03:49:38.340Z,1.85
2019-03-03T03:52:26.813Z,1.17
2019-03-03T03:54:56.927Z,1.17
2019-03-03T03:57:42.070Z,1.50
2019-03-03T04:00:12.214Z,1.67
2019-03-03T04:02:42.252Z,1.32
2019-03-03T04:05:12.237Z,1.32
2019-03-03T04:07:42.332Z,1.85
2019-03-03T04:10:18.041Z,1.40
2019-03-03T04:12:56.947Z,1.20
2019-03-03T04:15:35.914Z,1.77
2019-03-03T04:18:06.057Z,0.95
2019-03-03T04:20:41.783Z,1.45
2019-03-03T04:23:11.810Z,1.33
2019-03-03T04:26:00.522Z,1.10
2019-03-03T04:28:30.569Z,0.80
2019-03-03T04:31:09.772Z,0.88
2019-03-03T04:33:39.794Z,0.70
2019-03-03T04:36:09.785Z,0.78
2019-03-03T04:41:51.873Z,1.12
2019-03-03T04:44:21.944Z,0.60
2019-03-03T04:46:58.147Z,0.95
2019-03-03T04:49:45.818Z,0.82
2019-03-03T04:52:18.737Z,1.00
2019-03-03T04:55:06.729Z,1.77
2019-03-03T04:57:53.252Z,1.10
2019-03-03T05:00:38.209Z,0.78
2019-03-03T05:03:20.165Z,1.30
2019-03-03T05:06:06.699Z,1.95
2019-03-03T05:11:53.173Z,1.30
2019-03-03T05:14:23.195Z,1.80
2019-03-03T05:16:53.347Z,2.25
2019-03-03T05:19:21.909Z,2.40
2019-03-03T05:21:50.339Z,2.10
2019-03-03T05:24:18.777Z,2.65
2019-03-03T05:26:47.175Z,2.30
2019-03-03T05:29:15.556Z,2.55
2019-03-03T05:31:44.056Z,2.67
2019-03-03T05:34:12.524Z,1.98
2019-03-03T05:36:40.944Z,2.02
2019-03-03T05:39:09.410Z,2.67
2019-03-03T05:41:37.941Z,2.12
2019-03-03T05:44:06.385Z,2.65
2019-03-03T05:46:34.727Z,1.92
2019-03-03T05:49:04.269Z,1.77
2019-03-03T05:51:32.603Z,1.72
2019-03-03T05:54:01.050Z,1.92
2019-03-03T05:56:29.514Z,2.20
2019-03-03T05:58:58.119Z,2.02
2019-03-03T06:01:26.574Z,1.82
2019-03-03T06:03:55.005Z,2.30
2019-03-03T06:06:23.367Z,3.10
2019-03-03T06:08:51.758Z,2.87
2019-03-03T06:11:20.208Z,3.02
2019-03-03T06:13:48.744Z,3.00
2019-03-03T06:16:17.260Z,2.47
2019-03-03T06:18:45.683Z,2.80
2019-03-03T06:21:14.132Z,2.77
2019-03-03T06:23:42.649Z,2.25
2019-03-03T06:26:11.074Z,3.05
2019-03-03T06:28:39.503Z,2.65
2019-03-03T06:31:08.130Z,2.10
2019-03-03T06:33:36.641Z,2.20
2019-03-03T06:36:05.088Z,2.40
2019-03-03T06:38:33.577Z,4.28
2019-03-03T06:41:02.332Z,3.60
2019-03-03T06:43:30.681Z,5.10
2019-03-03T06:45:59.172Z,5.92
2019-03-03T06:48:27.624Z,5.50
2019-03-03T06:50:56.083Z,4.40
2019-03-03T06:53:24.526Z,4.85
2019-03-03T06:55:53.030Z,5.03
2019-03-03T06:58:21.414Z,4.25
2019-03-03T07:00:49.951Z,3.35
2019-03-03T07:03:18.369Z,3.67
2019-03-03T07:05:46.929Z,5.90
2019-03-03T07:08:15.640Z,7.22
2019-03-03T07:10:44.030Z,6.87
2019-03-03T07:13:12.499Z,8.35
2019-03-03T07:15:40.976Z,8.03
2019-03-03T07:18:09.366Z,7.72
2019-03-03T07:20:37.912Z,7.30
2019-03-03T07:23:06.324Z,7.50
2019-03-03T07:25:34.872Z,7.50
2019-03-03T07:28:03.431Z,6.05
2019-03-03T07:30:31.809Z,6.22
2019-03-03T07:33:04.592Z,7.03
2019-03-03T07:35:33.115Z,5.53
2019-03-03T07:38:01.562Z,4.67
2019-03-03T07:40:30.027Z,4.00
2019-03-03T07:42:58.455Z,4.28
2019-03-03T07:45:26.942Z,4.47
2019-03-03T07:47:55.329Z,5.58
2019-03-03T07:50:23.845Z,4.40
2019-03-03T07:52:52.225Z,4.75
2019-03-03T07:55:20.576Z,6.15
2019-03-03T07:57:49.004Z,6.00
2019-03-03T08:00:17.390Z,5.95
2019-03-03T08:02:45.740Z,5.53
2019-03-03T08:05:14.112Z,5.67
2019-03-03T08:07:42.464Z,7.05
2019-03-03T08:10:12.358Z,6.00
2019-03-03T08:12:40.852Z,5.08
2019-03-03T08:15:19.799Z,6.87
2019-03-03T08:17:48.374Z,7.37
2019-03-03T08:20:16.778Z,8.00
2019-03-03T08:22:45.129Z,9.63
2019-03-03T08:25:13.936Z,10.25
2019-03-03T08:27:42.453Z,9.58
2019-03-03T08:30:15.632Z,9.05
2019-03-03T08:32:44.027Z,8.63
2019-03-03T08:35:21.538Z,11.08
2019-03-03T08:37:49.944Z,8.63
2019-03-03T08:40:18.337Z,7.35
2019-03-03T08:42:57.488Z,9.78
2019-03-03T08:45:33.132Z,7.72
2019-03-03T08:48:09.082Z,6.85
2019-03-03T08:50:42.114Z,6.55
2019-03-03T08:53:28.700Z,5.90
2019-03-03T08:56:01.916Z,6.67
2019-03-03T08:58:48.272Z,6.75
2019-03-03T09:01:18.328Z,8.08
2019-03-03T09:04:00.609Z,7.22
2019-03-03T09:06:48.544Z,6.90
2019-03-03T09:09:35.064Z,6.42
2019-03-03T09:12:23.483Z,6.45
2019-03-03T09:15:11.598Z,5.42
2019-03-03T09:17:53.473Z,5.30
2019-03-03T09:20:23.463Z,5.45
2019-03-03T09:22:59.501Z,5.12
2019-03-03T09:25:35.066Z,4.95
2019-03-03T09:28:10.763Z,4.17
2019-03-03T09:30:55.915Z,5.80
2019-03-03T09:33:26.010Z,6.50
2019-03-03T09:35:56.053Z,9.10
2019-03-03T09:38:28.772Z,9.10
2019-03-03T09:40:58.802Z,8.10
2019-03-03T09:43:31.364Z,8.63
2019-03-03T09:49:11.924Z,15.20
2019-03-03T09:51:58.476Z,16.05
2019-03-03T09:54:28.986Z,17.55
2019-03-03T09:57:07.698Z,18.40
2019-03-03T09:59:46.368Z,16.10
2019-03-03T10:02:25.318Z,22.27
2019-03-03T10:05:00.987Z,21.23
2019-03-03T10:07:36.772Z,18.30
2019-03-03T10:10:10.097Z,17.00
2019-03-03T10:12:49.572Z,17.60
2019-03-03T10:15:25.129Z,20.20
2019-03-03T10:18:13.291Z,17.17
2019-03-03T10:20:51.841Z,18.25
2019-03-03T10:23:24.542Z,19.20
2019-03-03T10:25:54.708Z,25.25
2019-03-03T10:28:39.989Z,21.40
2019-03-03T10:31:12.797Z,20.92
2019-03-03T10:33:42.845Z,21.95
2019-03-03T10:36:21.839Z,22.27
2019-03-03T10:38:53.067Z,23.05
2019-03-03T10:41:25.814Z,26.70
2019-03-03T10:43:58.770Z,27.02
2019-03-03T10:46:47.325Z,26.68
2019-03-03T10:49:20.332Z,26.77
2019-03-03T10:51:52.981Z,25.90
2019-03-03T10:54:22.928Z,26.33
2019-03-03T10:56:58.941Z,27.42
2019-03-03T10:59:32.024Z,27.75
2019-03-03T11:02:02.089Z,28.25
2019-03-03T11:04:37.818Z,24.15
2019-03-03T11:07:07.774Z,24.07
2019-03-03T11:09:54.430Z,26.23
2019-03-03T11:12:36.570Z,26.33
2019-03-03T11:15:24.856Z,25.55
2019-03-03T11:18:10.179Z,22.32
2019-03-03T11:20:56.417Z,26.15
2019-03-03T11:23:42.753Z,26.77
2019-03-03T11:26:21.854Z,22.58
2019-03-03T11:29:08.644Z,22.60
2019-03-03T11:31:54.971Z,20.90
2019-03-03T11:37:06.035Z,27.13
2019-03-03T11:39:36.009Z,33.67
2019-03-03T11:42:08.798Z,41.77
2019-03-03T11:44:44.940Z,44.38
2019-03-03T11:47:17.930Z,42.23
2019-03-03T11:49:50.681Z,38.70
2019-03-03T11:52:23.993Z,37.05
2019-03-03T11:54:57.129Z,33.98
2019-03-03T11:57:29.838Z,30.82
2019-03-03T12:00:12.194Z,28.35
2019-03-03T12:02:53.932Z,28.52
2019-03-03T12:05:29.034Z,22.50
2019-03-03T12:08:07.537Z,24.05
2019-03-03T12:10:40.373Z,32.42
2019-03-03T12:13:21.961Z,34.10
2019-03-03T12:15:55.072Z,30.08
2019-03-03T12:18:25.069Z,28.00
2019-03-03T12:20:55.004Z,23.20
2019-03-03T12:23:40.379Z,25.90
2019-03-03T12:26:16.050Z,24.27
2019-03-03T12:28:46.159Z,20.97
2019-03-03T12:31:19.213Z,32.30
2019-03-03T12:33:49.240Z,39.73
2019-03-03T12:36:19.400Z,34.20
2019-03-03T12:39:06.038Z,31.17
2019-03-03T12:41:38.855Z,27.25
2019-03-03T12:44:14.721Z,27.40
2019-03-03T12:46:44.778Z,31.42
2019-03-03T12:49:14.775Z,33.13
2019-03-03T12:51:47.755Z,31.85
2019-03-03T12:54:23.793Z,26.10
2019-03-03T12:56:56.695Z,26.00
2019-03-03T12:59:31.055Z,19.87
2019-03-03T13:02:01.006Z,24.15
2019-03-03T13:04:31.069Z,24.27
2019-03-03T13:07:01.097Z,18.45
2019-03-03T13:09:33.759Z,14.73
2019-03-03T13:12:06.198Z,16.12
2019-03-03T13:14:36.224Z,19.52
2019-03-03T13:19:59.706Z,16.82
2019-03-03T13:22:38.493Z,17.27
2019-03-03T13:25:13.046Z,20.82
2019-03-03T13:27:48.831Z,21.33
2019-03-03T13:30:18.866Z,22.48
2019-03-03T13:32:49.003Z,17.77
2019-03-03T13:35:31.012Z,17.52
2019-03-03T13:38:17.475Z,15.30
2019-03-03T13:40:47.578Z,15.72
2019-03-03T13:43:16.041Z,19.32
2019-03-03T13:45:44.496Z,22.55
2019-03-03T13:48:14.131Z,18.73
2019-03-03T13:50:42.492Z,16.95
2019-03-03T13:53:10.899Z,16.40
2019-03-03T13:55:39.421Z,15.85
2019-03-03T13:58:07.816Z,15.15
2019-03-03T14:00:36.290Z,13.83
2019-03-03T14:03:04.788Z,12.80
2019-03-03T14:05:33.212Z,9.80
2019-03-03T14:08:01.609Z,10.10
2019-03-03T14:10:30.134Z,13.13
2019-03-03T14:12:58.740Z,13.68
2019-03-03T14:15:27.164Z,11.65
2019-03-03T14:17:55.594Z,13.40
2019-03-03T14:20:24.036Z,14.65
2019-03-03T14:22:53.313Z,11.95
2019-03-03T14:25:21.917Z,12.37
2019-03-03T14:27:50.538Z,11.08
2019-03-03T14:30:24.529Z,9.65
2019-03-03T14:32:52.988Z,10.00
2019-03-03T14:35:21.493Z,12.03
2019-03-03T14:37:49.959Z,10.55
2019-03-03T14:40:22.714Z,10.68
2019-03-03T14:42:51.264Z,13.15
2019-03-03T14:45:19.937Z,13.20
2019-03-03T14:47:48.302Z,15.90
2019-03-03T14:50:19.404Z,16.75
2019-03-03T14:52:49.953Z,17.37
2019-03-03T14:55:19.620Z,16.75
2019-03-03T14:57:48.016Z,20.57
2019-03-03T15:00:27.538Z,17.67
2019-03-03T15:02:56.437Z,19.73
2019-03-03T15:05:24.906Z,18.02
2019-03-03T15:07:53.519Z,19.23
2019-03-03T15:10:21.882Z,16.77
2019-03-03T15:12:50.294Z,14.73
2019-03-03T15:15:24.159Z,13.30
2019-03-03T15:17:52.690Z,12.43
2019-03-03T15:20:21.096Z,13.40
2019-03-03T15:22:49.568Z,16.48
2019-03-03T15:25:18.144Z,17.77
2019-03-03T15:27:46.623Z,17.52
2019-03-03T15:30:20.491Z,17.20
2019-03-03T15:32:48.958Z,15.83
2019-03-03T15:35:17.402Z,14.45
2019-03-03T15:37:46.409Z,12.60
2019-03-03T15:40:17.789Z,13.68
2019-03-03T15:42:46.152Z,9.90
2019-03-03T15:45:17.244Z,9.68
2019-03-03T15:47:45.724Z,10.18
2019-03-03T15:50:14.420Z,13.98
2019-03-03T15:52:42.991Z,12.65
2019-03-03T15:55:16.453Z,12.85
2019-03-03T15:58:04.374Z,15.10
2019-03-03T16:00:37.429Z,14.53
2019-03-03T16:03:06.053Z,10.75
2019-03-03T16:05:34.723Z,12.20
2019-03-03T16:08:03.158Z,10.10
2019-03-03T16:10:31.532Z,12.30
2019-03-03T16:13:00.030Z,11.30
2019-03-03T16:15:28.365Z,11.45
2019-03-03T16:17:56.800Z,9.95
2019-03-03T16:20:25.633Z,8.13
2019-03-03T16:22:54.059Z,8.58
2019-03-03T16:25:23.553Z,8.23
2019-03-03T16:27:52.000Z,8.65
2019-03-03T16:30:21.511Z,7.60
2019-03-03T16:32:50.089Z,7.55
2019-03-03T16:35:18.537Z,8.65
2019-03-03T16:37:47.017Z,7.37
2019-03-03T16:40:21.641Z,7.67
2019-03-03T16:42:50.126Z,6.75
2019-03-03T16:45:18.739Z,4.97
2019-03-03T16:47:47.273Z,7.12
2019-03-03T16:50:20.751Z,8.08
2019-03-03T16:52:49.306Z,8.20
2019-03-03T16:55:19.943Z,7.22
2019-03-03T16:58:07.756Z,6.30
2019-03-03T17:00:36.316Z,6.47
2019-03-03T17:03:04.738Z,5.53
2019-03-03T17:05:33.214Z,5.35
2019-03-03T17:08:01.741Z,4.85
2019-03-03T17:10:30.109Z,5.33
2019-03-03T17:12:58.484Z,5.58
2019-03-03T17:15:28.377Z,4.92
2019-03-03T17:17:56.788Z,4.90
2019-03-03T17:20:25.204Z,4.40
2019-03-03T17:22:53.762Z,4.60
2019-03-03T17:25:24.475Z,4.90
2019-03-03T17:27:52.878Z,3.98
2019-03-03T17:30:23.020Z,3.67
2019-03-03T17:32:51.401Z,3.85
2019-03-03T17:35:19.833Z,3.47
2019-03-03T17:37:48.475Z,3.40
2019-03-03T17:40:22.240Z,4.42
2019-03-03T17:42:50.719Z,4.45
2019-03-03T17:45:22.956Z,4.10
2019-03-03T17:47:51.580Z,4.40
2019-03-03T17:50:29.982Z,4.22
2019-03-03T17:52:58.370Z,3.67
2019-03-03T17:55:26.789Z,3.72
2019-03-03T17:57:55.402Z,5.25
2019-03-03T18:00:40.042Z,6.53
2019-03-03T18:03:08.618Z,6.87
2019-03-03T18:05:37.020Z,7.30
2019-03-03T18:08:05.400Z,6.62
2019-03-03T18:10:34.096Z,7.03
2019-03-03T18:13:02.516Z,9.65
2019-03-03T18:15:31.007Z,10.85
2019-03-03T18:17:59.586Z,13.50
2019-03-03T18:20:27.941Z,13.53
2019-03-03T18:22:56.346Z,14.78
2019-03-03T18:25:24.927Z,13.60
2019-03-03T18:27:53.404Z,13.80
2019-03-03T18:30:27.228Z,13.50
2019-03-03T18:32:55.653Z,13.28
2019-03-03T18:35:24.126Z,12.68
2019-03-03T18:37:52.597Z,14.47
2019-03-03T18:40:22.664Z,12.75
2019-03-03T18:42:51.077Z,15.32
2019-03-03T18:45:20.520Z,16.17
2019-03-03T18:47:49.340Z,16.67
2019-03-03T18:50:25.613Z,14.03
2019-03-03T18:52:54.153Z,14.05
2019-03-03T18:55:22.689Z,12.98
2019-03-03T18:57:51.099Z,11.33
2019-03-03T19:00:22.900Z,11.97
2019-03-03T19:02:51.496Z,13.62
2019-03-03T19:05:19.977Z,14.87
2019-03-03T19:07:48.513Z,14.95
2019-03-03T19:10:28.088Z,12.65
2019-03-03T19:12:56.589Z,12.10
2019-03-03T19:15:25.065Z,11.75
2019-03-03T19:17:53.538Z,10.95
2019-03-03T19:20:22.468Z,12.85
2019-03-03T19:22:50.891Z,14.18
2019-03-03T19:25:19.349Z,15.58
2019-03-03T19:27:47.882Z,17.67
2019-03-03T19:30:18.806Z,17.45
2019-03-03T19:32:49.993Z,16.85
2019-03-03T19:35:18.576Z,22.20
2019-03-03T19:37:47.080Z,25.02
2019-03-03T19:40:15.516Z,20.70
2019-03-03T19:42:43.976Z,16.87
2019-03-03T19:45:15.790Z,16.37
2019-03-03T19:47:44.228Z,14.13
2019-03-03T19:50:14.121Z,13.50
2019-03-03T19:52:42.416Z,12.58
2019-03-03T19:55:13.097Z,10.82
2019-03-03T19:57:41.624Z,10.30
2019-03-03T20:00:22.069Z,10.80
2019-03-03T20:02:50.592Z,11.88
2019-03-03T20:05:18.949Z,9.70
2019-03-03T20:07:47.384Z,9.10
2019-03-03T20:10:16.031Z,10.25
2019-03-03T20:12:44.965Z,9.03
2019-03-03T20:15:14.525Z,10.03
2019-03-03T20:17:46.617Z,7.58
2019-03-03T20:20:17.088Z,8.33
2019-03-03T20:22:45.994Z,7.90
2019-03-03T20:25:15.273Z,6.92
2019-03-03T20:27:45.012Z,7.33
2019-03-03T20:30:16.385Z,6.45
2019-03-03T20:32:46.071Z,6.90
2019-03-03T20:35:15.537Z,5.37
2019-03-03T20:37:44.630Z,5.30
2019-03-03T20:40:17.941Z,4.25
2019-03-03T20:42:50.918Z,4.83
2019-03-03T20:45:28.617Z,4.12
2019-03-03T20:47:57.534Z,4.87
2019-03-03T20:50:25.997Z,5.42
2019-03-03T20:52:54.431Z,3.42
2019-03-03T20:55:25.166Z,3.55
2019-03-03T20:57:53.525Z,2.25
2019-03-03T21:00:24.128Z,3.02
2019-03-03T21:02:52.873Z,2.27
2019-03-03T21:05:21.268Z,2.67
2019-03-03T21:07:51.664Z,3.27
2019-03-03T21:10:22.621Z,3.05
2019-03-03T21:13:10.407Z,2.17
2019-03-03T21:15:38.767Z,1.67
2019-03-03T21:18:07.105Z,2.47
2019-03-03T21:20:35.516Z,3.77
2019-03-03T21:23:03.999Z,2.95
2019-03-03T21:25:32.433Z,4.95
2019-03-03T21:28:00.828Z,6.22
2019-03-03T21:30:29.609Z,7.53
2019-03-03T21:32:58.079Z,5.92
2019-03-03T21:35:26.481Z,5.97
2019-03-03T21:37:54.989Z,7.10
2019-03-03T21:40:25.640Z,7.08
2019-03-03T21:42:54.156Z,8.00
2019-03-03T21:45:25.078Z,7.67
2019-03-03T21:47:53.520Z,6.78
2019-03-03T21:50:31.784Z,12.88
2019-03-03T21:53:00.301Z,14.15
2019-03-03T21:55:28.667Z,16.70
2019-03-03T21:57:57.204Z,16.17
2019-03-03T22:00:33.635Z,16.40
2019-03-03T22:03:02.153Z,18.07
2019-03-03T22:05:30.625Z,21.12
2019-03-03T22:07:58.981Z,21.77
2019-03-03T22:10:30.846Z,22.67
2019-03-03T22:13:01.924Z,24.77
2019-03-03T22:15:30.411Z,25.37
2019-03-03T22:17:58.803Z,24.43
2019-03-03T22:20:27.150Z,23.12
2019-03-03T22:22:55.567Z,23.70
2019-03-03T22:25:24.072Z,21.37
2019-03-03T22:27:56.438Z,18.65
2019-03-03T22:30:25.140Z,16.97
2019-03-03T22:32:53.566Z,14.05
2019-03-03T22:35:22.017Z,14.87
2019-03-03T22:37:50.948Z,14.80
2019-03-03T22:40:21.189Z,12.98
2019-03-03T22:42:49.548Z,11.93
2019-03-03T22:45:18.353Z,10.38
2019-03-03T22:47:46.716Z,10.15
2019-03-03T22:50:16.320Z,8.78
2019-03-03T22:52:44.718Z,8.85
2019-03-03T22:55:17.986Z,13.32
2019-03-03T22:57:46.421Z,11.75
2019-03-03T23:00:21.180Z,11.73
2019-03-03T23:02:49.587Z,10.68
2019-03-03T23:05:40.973Z,9.80
2019-03-03T23:08:12.598Z,9.60
2019-03-03T23:10:46.828Z,8.50
2019-03-03T23:13:33.870Z,8.08
2019-03-03T23:16:31.240Z,8.95
2019-03-03T23:19:14.710Z,11.95
2019-03-03T23:22:11.312Z,10.30
2019-03-03T23:24:58.025Z,9.50
2019-03-03T23:27:26.473Z,8.65
2019-03-03T23:29:54.937Z,10.23
2019-03-03T23:32:23.371Z,14.43
2019-03-03T23:34:51.838Z,17.98
2019-03-03T23:37:20.271Z,17.37
2019-03-03T23:39:48.705Z,20.08
2019-03-03T23:42:17.102Z,17.02
2019-03-03T23:44:45.547Z,14.30
2019-03-03T23:47:14.125Z,13.25
2019-03-03T23:49:42.706Z,12.37
2019-03-03T23:52:12.462Z,11.80
2019-03-03T23:54:41.032Z,11.65
2019-03-03T23:57:09.359Z,10.68
2019-03-03T23:59:37.901Z,9.68
